WetterOnline ( https://www.wetteronline.de )

Wetter aktuell Bonn

Aktuelles Wetter: Königswinter-Heiderhof (147m)

6-stündlich | Neueste Meldungen
Ortszeit Temperatur Wetter
Fr, 27.05. 2:00 15.3° C bedeckt
Do, 26.05. 20:00 19.5° C wolkig
Do, 26.05. 14:00 19.5° C wolkig
Do, 26.05. 8:00 14.6° C wolkig
Do, 26.05. 2:00 15.3° C bedeckt
Mi, 25.05. 20:00 17.9° C bedeckt
Mi, 25.05. 14:00 19.1° C leicht bewölkt
Mi, 25.05. 8:00 11.8° C wolkenlos
Ortszeit Temperatur Wetter
Fr, 27.05. 2:00 15.3° C bedeckt
Fr, 27.05. 1:50 15.3° C bedeckt
Fr, 27.05. 1:40 15.3° C bedeckt
Fr, 27.05. 1:30 15.5° C bedeckt
Fr, 27.05. 1:20 15.5° C bedeckt
Fr, 27.05. 1:10 15.5° C bedeckt
Fr, 27.05. 1:00 15.8° C bedeckt
Fr, 27.05. 0:30 16.4° C bedeckt
Fr, 27.05. 0:00 16.5° C bedeckt
Do, 26.05. 23:30 16.8° C bedeckt
Do, 26.05. 23:00 17.3° C bedeckt
Ortszeit Relative Feuchte Sichtweite
Fr, 27.05. 2:00 74% 55 km
Do, 26.05. 20:00 54% >70 km
Do, 26.05. 14:00 51% >70 km
Do, 26.05. 8:00 76% 65 km
Do, 26.05. 2:00 62% >70 km
Mi, 25.05. 20:00 44% >70 km
Mi, 25.05. 14:00 43% 65 km
Mi, 25.05. 8:00 82% 55 km
Ortszeit Relative Feuchte Sichtweite
Fr, 27.05. 2:00 74% 55 km
Fr, 27.05. 1:50 74% -
Fr, 27.05. 1:40 75% -
Fr, 27.05. 1:30 74% 65 km
Fr, 27.05. 1:20 74% -
Fr, 27.05. 1:10 76% -
Fr, 27.05. 1:00 75% 55 km
Fr, 27.05. 0:30 71% 65 km
Fr, 27.05. 0:00 70% 65 km
Do, 26.05. 23:30 69% 65 km
Do, 26.05. 23:00 66% 60 km
Ortszeit Niederschlagsmenge Niederschlagsart
Fr, 27.05. 2:00 0.0 l/m2 in 6 Std. -
Do, 26.05. 20:00 0.0 l/m2 in 12 Std. -
Do, 26.05. 14:00 0.0 l/m2 in 6 Std. -
Do, 26.05. 8:00 0.1 l/m2 in 12 Std. -
Do, 26.05. 2:00 0.1 l/m2 in 6 Std. Regen
Mi, 25.05. 20:00 0.0 l/m2 in 12 Std. -
Mi, 25.05. 14:00 0.0 l/m2 in 6 Std. -
Mi, 25.05. 8:00 0.1 l/m2 in 12 Std. -
Ortszeit Niederschlagsmenge Niederschlagsart
Fr, 27.05. 2:00 0.0 l/m2 in 1 Std. -
Fr, 27.05. 1:50 keine Meldung -
Fr, 27.05. 1:40 keine Meldung -
Fr, 27.05. 1:30 0.0 l/m2 in 1 Std. -
Fr, 27.05. 1:20 keine Meldung -
Fr, 27.05. 1:10 keine Meldung -
Fr, 27.05. 1:00 0.0 l/m2 in 1 Std. -
Fr, 27.05. 0:30 0.0 l/m2 in 1 Std. -
Fr, 27.05. 0:00 0.0 l/m2 in 1 Std. -
Do, 26.05. 23:30 0.0 l/m2 in 1 Std. -
Do, 26.05. 23:00 0.0 l/m2 in 1 Std. -
Ortszeit Stärke Spitze Richtung
km/h Bft. km/h Grad Sektor
Fr, 27.05. 2:00 15 3 33 260° W
Do, 26.05. 20:00 17 3 35 260° W
Do, 26.05. 14:00 18 3 36 270° W
Do, 26.05. 8:00 11 2 36 250° W
Do, 26.05. 2:00 18 3 36 250° W
Mi, 25.05. 20:00 18 3 36 270° W
Mi, 25.05. 14:00 19 3 35 250° W
Mi, 25.05. 8:00 13 3 24 220° SW
Ortszeit Stärke Spitze Richtung
km/h Bft. km/h Grad Sektor
Fr, 27.05. 2:00 15 3 31 260° W
Fr, 27.05. 1:50 15 3 - 260° W
Fr, 27.05. 1:40 14 3 - 270° W
Fr, 27.05. 1:30 20 4 31 260° W
Fr, 27.05. 1:20 20 4 - 260° W
Fr, 27.05. 1:10 14 3 - 260° W
Fr, 27.05. 1:00 9 2 24 290° W
Fr, 27.05. 0:30 11 2 22 240° SW
Fr, 27.05. 0:00 13 3 26 230° SW
Do, 26.05. 23:30 13 3 26 240° SW
Do, 26.05. 23:00 17 3 30 250° W
Ortszeit Untergrenze Bedeckung Gattung
total tief tief mittel hoch
Fr, 27.05. 2:00 1140 m 8/8 8/8 - - -
Do, 26.05. 20:00 7200 m 8/8 0/8 - - -
Do, 26.05. 14:00 1380 m 5/8 4/8 - - -
Do, 26.05. 8:00 690 m 6/8 6/8 - - -
Do, 26.05. 2:00 1170 m 8/8 8/8 - - -
Mi, 25.05. 20:00 2100 m 8/8 8/8 - - -
Mi, 25.05. 14:00 1800 m 3/8 3/8 - - -
Mi, 25.05. 8:00 - 0/8 0/8 - - -
Ortszeit Bedeckungsgrad in Achtel und Wolkenuntergrenze
Fr, 27.05. 2:00 5(1140m) 8(2100m)
Fr, 27.05. 1:50 5(1140m) 8(2100m)
Fr, 27.05. 1:40 8
Fr, 27.05. 1:30 5(900m) 7(1260m) 8(2100m)
Fr, 27.05. 1:20 5(900m) 7(1260m) 8(2100m)
Fr, 27.05. 1:10 8
Fr, 27.05. 1:00 7(810m) 8(960m)
Fr, 27.05. 0:30 6(900m) 8(1020m)
Fr, 27.05. 0:00 8(1020m)
Do, 26.05. 23:30 8(1170m)
Do, 26.05. 23:00 8(1230m)
Ortszeit Luftdruck NN (hPa) Tendenz (hPa in 3 Std.)
Fr, 27.05. 2:00 1021 - 0,5
Do, 26.05. 20:00 1021 - 0,8
Do, 26.05. 14:00 1022 + 0,4
Do, 26.05. 8:00 1021 + 1,4
Do, 26.05. 2:00 1019 + 0,5
Mi, 25.05. 20:00 1017 + 0,8
Mi, 25.05. 14:00 1016 0,0
Mi, 25.05. 8:00 1016 + 1,6
Ortszeit Luftdruck NN (hPa) Tendenz (hPa in 3 Std.)
Fr, 27.05. 2:00 1021 - 0,5
Fr, 27.05. 1:50 1021 keine Meldung
Fr, 27.05. 1:40 1021 keine Meldung
Fr, 27.05. 1:30 1022 - 0,3
Fr, 27.05. 1:20 1022 keine Meldung
Fr, 27.05. 1:10 1022 keine Meldung
Fr, 27.05. 1:00 1022 + 0,3
Fr, 27.05. 0:30 1022 + 0,4
Fr, 27.05. 0:00 1021 + 0,7
Do, 26.05. 23:30 1022 + 0,8
Do, 26.05. 23:00 1022 + 1,0
Ortszeit Schneehöhe (cm)
Fr, 27.05. 2:00 0
Do, 26.05. 20:00 0
Do, 26.05. 14:00 0
Do, 26.05. 8:00 0
Do, 26.05. 2:00 0
Mi, 25.05. 20:00 0
Mi, 25.05. 14:00 0
Mi, 25.05. 8:00 0
Ortszeit Schneehöhe (cm)
Fr, 27.05. 2:00 0
Fr, 27.05. 1:50 0
Fr, 27.05. 1:40 0
Fr, 27.05. 1:30 0
Fr, 27.05. 1:20 0
Fr, 27.05. 1:10 0
Fr, 27.05. 1:00 0
Fr, 27.05. 0:30 0
Fr, 27.05. 0:00 0
Do, 26.05. 23:30 0
Do, 26.05. 23:00 0
Link zu dieser Seite / Seite empfehlen

Das Wetter in ...